AEE2ZA LGAV-LGZA
Flight info
| Callsign | AEE2ZA |
|---|---|
| Flight time | 0h 37m |
| Altitude | 24000 |
| Route | KOR N604 ARA |
| Aircraft | A320/M-SDE3FGHIRWY/LB1 |
Departure
| Time | 2026-04-26 14:09 |
|---|---|
| Airport | Athens Eleftherios Venizelos International Airport (LGAV) |
Arrival
| Time | 2026-04-26 14:46 |
|---|---|
| Airport | Zakynthos International Airport Dionysios Solomos (LGZA) |
| Time | Latitude | Longitude | Altitude | Speed | Heading |
|---|---|---|---|---|---|
| 2026-04-26 13:05 | 37.93108 | 23.94190 | 301 ft | 0 kts | 37° |
| 2026-04-26 13:46 | 37.93098 | 23.94180 | 301 ft | 4 kts | 37° |
| 2026-04-26 13:46 | 37.93076 | 23.94159 | 303 ft | 4 kts | 37° |
| 2026-04-26 13:47 | 37.93060 | 23.94143 | 301 ft | 4 kts | 33° |
| 2026-04-26 13:47 | 37.93036 | 23.94129 | 301 ft | 4 kts | 6° |
| 2026-04-26 13:47 | 37.93015 | 23.94134 | 302 ft | 3 kts | 309° |
| 2026-04-26 13:47 | 37.93013 | 23.94137 | 302 ft | 0 kts | 307° |
| 2026-04-26 13:49 | 37.93018 | 23.94129 | 300 ft | 4 kts | 307° |
| 2026-04-26 13:50 | 37.93046 | 23.94082 | 302 ft | 10 kts | 307° |
| 2026-04-26 13:50 | 37.93099 | 23.93994 | 304 ft | 15 kts | 307° |
| 2026-04-26 13:50 | 37.93151 | 23.93907 | 302 ft | 12 kts | 307° |
| 2026-04-26 13:50 | 37.93213 | 23.93804 | 301 ft | 18 kts | 307° |
| 2026-04-26 13:51 | 37.93295 | 23.93667 | 302 ft | 20 kts | 307° |
| 2026-04-26 13:51 | 37.93387 | 23.93513 | 300 ft | 11 kts | 306° |
| 2026-04-26 13:51 | 37.93423 | 23.93447 | 301 ft | 10 kts | 296° |
| 2026-04-26 13:51 | 37.93392 | 23.93351 | 299 ft | 16 kts | 218° |
| 2026-04-26 13:52 | 37.93300 | 23.93264 | 300 ft | 17 kts | 217° |
| 2026-04-26 13:52 | 37.93195 | 23.93164 | 301 ft | 19 kts | 217° |
| 2026-04-26 13:52 | 37.93091 | 23.93065 | 299 ft | 19 kts | 217° |
| 2026-04-26 13:52 | 37.92969 | 23.92949 | 302 ft | 24 kts | 217° |
| 2026-04-26 13:53 | 37.92831 | 23.92818 | 302 ft | 27 kts | 217° |
| 2026-04-26 13:53 | 37.92697 | 23.92691 | 301 ft | 20 kts | 217° |
| 2026-04-26 13:53 | 37.92570 | 23.92570 | 303 ft | 25 kts | 217° |
| 2026-04-26 13:53 | 37.92420 | 23.92427 | 305 ft | 28 kts | 217° |
| 2026-04-26 13:54 | 37.92266 | 23.92282 | 302 ft | 23 kts | 217° |
| 2026-04-26 13:54 | 37.92165 | 23.92186 | 303 ft | 17 kts | 217° |
| 2026-04-26 13:54 | 37.92110 | 23.92119 | 302 ft | 9 kts | 244° |
| 2026-04-26 13:55 | 37.92124 | 23.92051 | 304 ft | 5 kts | 304° |
| 2026-04-26 13:55 | 37.92132 | 23.92036 | 302 ft | 2 kts | 305° |
| 2026-04-26 13:55 | 37.92199 | 23.91945 | 304 ft | 6 kts | 6° |
| 2026-04-26 13:56 | 37.92236 | 23.91976 | 303 ft | 7 kts | 36° |
| 2026-04-26 13:56 | 37.92285 | 23.92022 | 303 ft | 17 kts | 37° |
| 2026-04-26 13:56 | 37.92598 | 23.92320 | 303 ft | 90 kts | 37° |
| 2026-04-26 13:56 | 37.93253 | 23.92941 | 293 ft | 142 kts | 37° |
| 2026-04-26 13:57 | 37.94145 | 23.93794 | 300 ft | 169 kts | 36° |
| 2026-04-26 13:57 | 37.94778 | 23.94389 | 306 ft | 41 kts | 36° |
| 2026-04-26 13:57 | 37.94861 | 23.94511 | 306 ft | 12 kts | 60° |
| 2026-04-26 13:57 | 37.94905 | 23.94634 | 304 ft | 17 kts | 67° |
| 2026-04-26 13:58 | 37.94895 | 23.94732 | 302 ft | 11 kts | 147° |
| 2026-04-26 13:58 | 37.94828 | 23.94713 | 303 ft | 0 kts | 216° |
| 2026-04-26 13:59 | 37.94824 | 23.94709 | 303 ft | 0 kts | 216° |
| 2026-04-26 13:59 | 37.94822 | 23.94707 | 304 ft | 3 kts | 216° |
| 2026-04-26 13:59 | 37.94785 | 23.94672 | 302 ft | 10 kts | 217° |
| 2026-04-26 14:00 | 37.94575 | 23.94473 | 304 ft | 23 kts | 217° |
| 2026-04-26 14:00 | 37.94430 | 23.94336 | 302 ft | 25 kts | 217° |
| 2026-04-26 14:00 | 37.94326 | 23.94237 | 303 ft | 27 kts | 217° |
| 2026-04-26 14:01 | 37.94184 | 23.94103 | 302 ft | 20 kts | 217° |
| 2026-04-26 14:01 | 37.94048 | 23.93973 | 304 ft | 29 kts | 217° |
| 2026-04-26 14:01 | 37.93886 | 23.93819 | 301 ft | 31 kts | 217° |
| 2026-04-26 14:01 | 37.93747 | 23.93687 | 301 ft | 24 kts | 217° |
| 2026-04-26 14:02 | 37.93609 | 23.93556 | 301 ft | 25 kts | 217° |
| 2026-04-26 14:02 | 37.93467 | 23.93422 | 299 ft | 27 kts | 217° |
| 2026-04-26 14:02 | 37.93326 | 23.93288 | 299 ft | 25 kts | 217° |
| 2026-04-26 14:02 | 37.93187 | 23.93156 | 301 ft | 24 kts | 217° |
| 2026-04-26 14:03 | 37.93051 | 23.93026 | 301 ft | 25 kts | 217° |
| 2026-04-26 14:03 | 37.92901 | 23.92884 | 302 ft | 27 kts | 217° |
| 2026-04-26 14:03 | 37.92746 | 23.92737 | 301 ft | 21 kts | 217° |
| 2026-04-26 14:03 | 37.92642 | 23.92638 | 302 ft | 21 kts | 217° |
| 2026-04-26 14:04 | 37.92525 | 23.92527 | 301 ft | 15 kts | 217° |
| 2026-04-26 14:04 | 37.92424 | 23.92432 | 304 ft | 19 kts | 217° |
| 2026-04-26 14:04 | 37.92335 | 23.92347 | 302 ft | 19 kts | 217° |
| 2026-04-26 14:04 | 37.92242 | 23.92259 | 304 ft | 15 kts | 217° |
| 2026-04-26 14:05 | 37.92170 | 23.92191 | 303 ft | 14 kts | 217° |
| 2026-04-26 14:05 | 37.92110 | 23.92118 | 303 ft | 11 kts | 248° |
| 2026-04-26 14:05 | 37.92129 | 23.92041 | 303 ft | 0 kts | 306° |
| 2026-04-26 14:07 | 37.92133 | 23.92034 | 302 ft | 3 kts | 306° |
| 2026-04-26 14:07 | 37.92139 | 23.92024 | 303 ft | 2 kts | 306° |
| 2026-04-26 14:07 | 37.92166 | 23.91976 | 305 ft | 8 kts | 306° |
| 2026-04-26 14:07 | 37.92209 | 23.91952 | 304 ft | 8 kts | 22° |
| 2026-04-26 14:08 | 37.92261 | 23.91999 | 306 ft | 12 kts | 37° |
| 2026-04-26 14:08 | 37.92507 | 23.92233 | 304 ft | 80 kts | 37° |
| 2026-04-26 14:08 | 37.93160 | 23.92852 | 292 ft | 152 kts | 37° |
| 2026-04-26 14:08 | 37.94096 | 23.93747 | 750 ft | 175 kts | 38° |
| 2026-04-26 14:09 | 37.95015 | 23.94640 | 1538 ft | 161 kts | 37° |
| 2026-04-26 14:09 | 37.95907 | 23.95497 | 2202 ft | 168 kts | 37° |
| 2026-04-26 14:09 | 37.96901 | 23.96443 | 2563 ft | 190 kts | 36° |
| 2026-04-26 14:09 | 37.98029 | 23.97487 | 2865 ft | 212 kts | 33° |
| 2026-04-26 14:10 | 37.99315 | 23.98626 | 3222 ft | 238 kts | 33° |
| 2026-04-26 14:10 | 38.00706 | 23.99860 | 3933 ft | 248 kts | 33° |
| 2026-04-26 14:10 | 38.02126 | 24.01135 | 4812 ft | 253 kts | 33° |
| 2026-04-26 14:10 | 38.03700 | 24.02250 | 5407 ft | 266 kts | 14° |
| 2026-04-26 14:11 | 38.07243 | 24.01474 | 7035 ft | 268 kts | 322° |
| 2026-04-26 14:11 | 38.08495 | 23.99727 | 7864 ft | 271 kts | 298° |
| 2026-04-26 14:11 | 38.09050 | 23.97449 | 8690 ft | 275 kts | 275° |
| 2026-04-26 14:12 | 38.09147 | 23.95036 | 9517 ft | 278 kts | 272° |
| 2026-04-26 14:12 | 38.09231 | 23.92531 | 10261 ft | 285 kts | 273° |
| 2026-04-26 14:12 | 38.09317 | 23.89951 | 10522 ft | 308 kts | 273° |
| 2026-04-26 14:12 | 38.09417 | 23.87125 | 10720 ft | 331 kts | 273° |
| 2026-04-26 14:13 | 38.09648 | 23.80885 | 10990 ft | 376 kts | 274° |
| 2026-04-26 14:13 | 38.09772 | 23.77517 | 11392 ft | 386 kts | 274° |
| 2026-04-26 14:13 | 38.09895 | 23.74088 | 11962 ft | 391 kts | 274° |
| 2026-04-26 14:14 | 38.10018 | 23.70628 | 12587 ft | 394 kts | 274° |
| 2026-04-26 14:14 | 38.10141 | 23.67139 | 13179 ft | 398 kts | 274° |
| 2026-04-26 14:14 | 38.10265 | 23.63607 | 13769 ft | 402 kts | 274° |
| 2026-04-26 14:14 | 38.10390 | 23.60052 | 14281 ft | 405 kts | 274° |
| 2026-04-26 14:15 | 38.10515 | 23.56496 | 14795 ft | 409 kts | 274° |
| 2026-04-26 14:15 | 38.10639 | 23.52880 | 15301 ft | 412 kts | 274° |
| 2026-04-26 14:15 | 38.10763 | 23.49226 | 15810 ft | 416 kts | 274° |
| 2026-04-26 14:15 | 38.10886 | 23.45540 | 16320 ft | 419 kts | 274° |
| 2026-04-26 14:16 | 38.11009 | 23.41828 | 16860 ft | 422 kts | 274° |
| 2026-04-26 14:16 | 38.11130 | 23.38090 | 17391 ft | 425 kts | 274° |
| 2026-04-26 14:16 | 38.11250 | 23.34323 | 17895 ft | 429 kts | 274° |
| 2026-04-26 14:16 | 38.11370 | 23.30525 | 18392 ft | 432 kts | 274° |
| 2026-04-26 14:17 | 38.11492 | 23.26700 | 18844 ft | 435 kts | 274° |
| 2026-04-26 14:17 | 38.11617 | 23.22847 | 19299 ft | 438 kts | 274° |
| 2026-04-26 14:17 | 38.11742 | 23.18969 | 19758 ft | 440 kts | 274° |
| 2026-04-26 14:17 | 38.11863 | 23.15078 | 20201 ft | 443 kts | 274° |
| 2026-04-26 14:18 | 38.11981 | 23.11157 | 20613 ft | 445 kts | 274° |
| 2026-04-26 14:18 | 38.12096 | 23.07265 | 21019 ft | 448 kts | 274° |
| 2026-04-26 14:18 | 38.12211 | 23.03307 | 21425 ft | 450 kts | 274° |
| 2026-04-26 14:18 | 38.12328 | 22.99331 | 21808 ft | 452 kts | 274° |
| 2026-04-26 14:19 | 38.12448 | 22.95330 | 22178 ft | 454 kts | 274° |
| 2026-04-26 14:19 | 38.12568 | 22.91316 | 22543 ft | 456 kts | 274° |
| 2026-04-26 14:19 | 38.12686 | 22.87287 | 22899 ft | 458 kts | 274° |
| 2026-04-26 14:19 | 38.12801 | 22.83233 | 23255 ft | 460 kts | 274° |
| 2026-04-26 14:20 | 38.12914 | 22.79169 | 23606 ft | 462 kts | 274° |
| 2026-04-26 14:20 | 38.13026 | 22.75075 | 23898 ft | 463 kts | 274° |
| 2026-04-26 14:20 | 38.13140 | 22.70985 | 24006 ft | 464 kts | 274° |
| 2026-04-26 14:20 | 38.13252 | 22.66875 | 24031 ft | 466 kts | 274° |
| 2026-04-26 14:21 | 38.13361 | 22.62757 | 24029 ft | 466 kts | 274° |
| 2026-04-26 14:21 | 38.13467 | 22.58639 | 24030 ft | 467 kts | 274° |
| 2026-04-26 14:21 | 38.13572 | 22.54519 | 24030 ft | 467 kts | 274° |
| 2026-04-26 14:21 | 38.13674 | 22.50457 | 24030 ft | 467 kts | 274° |
| 2026-04-26 14:22 | 38.13775 | 22.46329 | 24027 ft | 467 kts | 274° |
| 2026-04-26 14:22 | 38.13875 | 22.42204 | 24035 ft | 466 kts | 274° |
| 2026-04-26 14:22 | 38.13972 | 22.38095 | 24037 ft | 465 kts | 274° |
| 2026-04-26 14:22 | 38.14068 | 22.33989 | 24034 ft | 465 kts | 274° |
| 2026-04-26 14:23 | 38.14165 | 22.29877 | 24034 ft | 465 kts | 274° |
| 2026-04-26 14:23 | 38.14265 | 22.25779 | 24031 ft | 464 kts | 274° |
| 2026-04-26 14:23 | 38.14364 | 22.21680 | 24030 ft | 464 kts | 274° |
| 2026-04-26 14:23 | 38.14459 | 22.17625 | 24033 ft | 464 kts | 274° |
| 2026-04-26 14:24 | 38.14553 | 22.13527 | 24031 ft | 464 kts | 274° |
| 2026-04-26 14:24 | 38.14643 | 22.09427 | 24026 ft | 464 kts | 274° |
| 2026-04-26 14:24 | 38.14729 | 22.05334 | 24032 ft | 463 kts | 274° |
| 2026-04-26 14:24 | 38.14813 | 22.01244 | 24034 ft | 464 kts | 274° |
| 2026-04-26 14:25 | 38.14898 | 21.97143 | 24031 ft | 463 kts | 274° |
| 2026-04-26 14:25 | 38.14983 | 21.93041 | 24039 ft | 463 kts | 274° |
| 2026-04-26 14:25 | 38.15067 | 21.88949 | 24036 ft | 463 kts | 274° |
| 2026-04-26 14:25 | 38.15011 | 21.84911 | 23808 ft | 462 kts | 266° |
| 2026-04-26 14:26 | 38.14286 | 21.80993 | 22250 ft | 456 kts | 250° |
| 2026-04-26 14:26 | 38.12680 | 21.77513 | 20591 ft | 458 kts | 233° |
| 2026-04-26 14:26 | 38.10570 | 21.74522 | 19064 ft | 452 kts | 230° |
| 2026-04-26 14:26 | 38.08479 | 21.71572 | 17514 ft | 446 kts | 230° |
| 2026-04-26 14:27 | 38.06438 | 21.68636 | 16060 ft | 445 kts | 231° |
| 2026-04-26 14:27 | 38.04413 | 21.65687 | 15277 ft | 439 kts | 231° |
| 2026-04-26 14:27 | 38.02423 | 21.62783 | 14542 ft | 434 kts | 231° |
| 2026-04-26 14:27 | 38.00450 | 21.59913 | 13719 ft | 425 kts | 231° |
| 2026-04-26 14:28 | 37.98526 | 21.57128 | 12381 ft | 416 kts | 230° |
| 2026-04-26 14:28 | 37.96687 | 21.54477 | 11705 ft | 393 kts | 230° |
| 2026-04-26 14:28 | 37.94936 | 21.51963 | 11282 ft | 366 kts | 230° |
| 2026-04-26 14:28 | 37.93316 | 21.49644 | 11119 ft | 337 kts | 230° |
| 2026-04-26 14:29 | 37.91823 | 21.47508 | 10979 ft | 312 kts | 231° |
| 2026-04-26 14:29 | 37.90461 | 21.45556 | 10698 ft | 298 kts | 231° |
| 2026-04-26 14:29 | 37.89890 | 21.44736 | 10592 ft | 297 kts | 231° |
| 2026-04-26 14:29 | 37.88523 | 21.42770 | 10369 ft | 297 kts | 231° |
| 2026-04-26 14:30 | 37.87168 | 21.40822 | 10123 ft | 293 kts | 231° |
| 2026-04-26 14:30 | 37.85841 | 21.38919 | 9920 ft | 290 kts | 230° |
| 2026-04-26 14:30 | 37.84502 | 21.36998 | 9789 ft | 291 kts | 230° |
| 2026-04-26 14:30 | 37.83160 | 21.35073 | 9656 ft | 290 kts | 231° |
| 2026-04-26 14:31 | 37.81823 | 21.33158 | 9529 ft | 290 kts | 231° |
| 2026-04-26 14:31 | 37.80492 | 21.31253 | 9398 ft | 289 kts | 231° |
| 2026-04-26 14:31 | 37.79161 | 21.29352 | 9267 ft | 289 kts | 231° |
| 2026-04-26 14:31 | 37.77831 | 21.27453 | 9135 ft | 288 kts | 230° |
| 2026-04-26 14:32 | 37.76515 | 21.25577 | 8888 ft | 288 kts | 230° |
| 2026-04-26 14:32 | 37.75189 | 21.23690 | 8512 ft | 286 kts | 230° |
| 2026-04-26 14:32 | 37.73871 | 21.21816 | 8119 ft | 284 kts | 231° |
| 2026-04-26 14:32 | 37.72557 | 21.19949 | 7748 ft | 283 kts | 230° |
| 2026-04-26 14:33 | 37.71250 | 21.18088 | 7373 ft | 281 kts | 231° |
| 2026-04-26 14:33 | 37.69957 | 21.16246 | 6991 ft | 279 kts | 230° |
| 2026-04-26 14:33 | 37.68672 | 21.14417 | 6624 ft | 278 kts | 230° |
| 2026-04-26 14:33 | 37.67390 | 21.12596 | 6233 ft | 276 kts | 230° |
| 2026-04-26 14:34 | 37.66122 | 21.10796 | 5850 ft | 273 kts | 230° |
| 2026-04-26 14:34 | 37.64878 | 21.09029 | 5486 ft | 272 kts | 230° |
| 2026-04-26 14:34 | 37.63634 | 21.07257 | 5118 ft | 265 kts | 230° |
| 2026-04-26 14:34 | 37.62441 | 21.05561 | 4767 ft | 250 kts | 230° |
| 2026-04-26 14:35 | 37.61317 | 21.03971 | 4429 ft | 236 kts | 230° |
| 2026-04-26 14:35 | 37.60249 | 21.02464 | 4119 ft | 224 kts | 231° |
| 2026-04-26 14:35 | 37.59235 | 21.01030 | 3821 ft | 217 kts | 230° |
| 2026-04-26 14:35 | 37.58239 | 20.99609 | 3532 ft | 215 kts | 234° |
| 2026-04-26 14:36 | 37.57602 | 20.97993 | 3261 ft | 208 kts | 263° |
| 2026-04-26 14:36 | 37.57674 | 20.96227 | 2992 ft | 200 kts | 290° |
| 2026-04-26 14:36 | 37.58390 | 20.94760 | 2828 ft | 199 kts | 316° |
| 2026-04-26 14:36 | 37.59561 | 20.93885 | 2673 ft | 193 kts | 341° |
| 2026-04-26 14:37 | 37.60843 | 20.93426 | 2510 ft | 189 kts | 342° |
| 2026-04-26 14:37 | 37.62098 | 20.92973 | 2359 ft | 185 kts | 342° |
| 2026-04-26 14:37 | 37.63329 | 20.92526 | 2220 ft | 177 kts | 341° |
| 2026-04-26 14:37 | 37.64465 | 20.92125 | 1997 ft | 164 kts | 341° |
| 2026-04-26 14:38 | 37.65517 | 20.91766 | 1790 ft | 148 kts | 340° |
| 2026-04-26 14:38 | 37.66462 | 20.91465 | 1600 ft | 138 kts | 344° |
| 2026-04-26 14:38 | 37.67407 | 20.91328 | 1347 ft | 135 kts | 349° |
| 2026-04-26 14:38 | 37.68025 | 20.91223 | 1172 ft | 135 kts | 346° |
| 2026-04-26 14:39 | 37.69222 | 20.90748 | 869 ft | 134 kts | 338° |
| 2026-04-26 14:39 | 37.70104 | 20.90353 | 726 ft | 135 kts | 339° |
| 2026-04-26 14:39 | 37.71026 | 20.89936 | 893 ft | 147 kts | 340° |
| 2026-04-26 14:39 | 37.72008 | 20.89560 | 1617 ft | 150 kts | 341° |
| 2026-04-26 14:40 | 37.73051 | 20.89184 | 2111 ft | 164 kts | 342° |
| 2026-04-26 14:40 | 37.74250 | 20.88755 | 2195 ft | 198 kts | 342° |
| 2026-04-26 14:40 | 37.75650 | 20.88183 | 2193 ft | 227 kts | 340° |
| 2026-04-26 14:40 | 37.77115 | 20.87240 | 2210 ft | 248 kts | 317° |
| 2026-04-26 14:41 | 37.78073 | 20.85443 | 2211 ft | 251 kts | 288° |
| 2026-04-26 14:41 | 37.77724 | 20.83452 | 2095 ft | 253 kts | 210° |
| 2026-04-26 14:41 | 37.76009 | 20.83537 | 1608 ft | 260 kts | 153° |
| 2026-04-26 14:41 | 37.74632 | 20.85023 | 1264 ft | 259 kts | 136° |
| 2026-04-26 14:42 | 37.73248 | 20.86494 | 1299 ft | 258 kts | 144° |
| 2026-04-26 14:42 | 37.71798 | 20.87689 | 1273 ft | 237 kts | 149° |
| 2026-04-26 14:42 | 37.70423 | 20.88607 | 1238 ft | 213 kts | 156° |
| 2026-04-26 14:42 | 37.69232 | 20.89233 | 1257 ft | 185 kts | 159° |
| 2026-04-26 14:43 | 37.68748 | 20.89475 | 1270 ft | 175 kts | 160° |
| 2026-04-26 14:43 | 37.67874 | 20.90523 | 1242 ft | 181 kts | 103° |
| 2026-04-26 14:43 | 37.68155 | 20.91897 | 865 ft | 166 kts | 30° |
| 2026-04-26 14:43 | 37.69136 | 20.91762 | 564 ft | 142 kts | 320° |
| 2026-04-26 14:44 | 37.69822 | 20.90949 | 691 ft | 133 kts | 317° |
| 2026-04-26 14:44 | 37.70593 | 20.90283 | 658 ft | 135 kts | 330° |
| 2026-04-26 14:44 | 37.71148 | 20.89946 | 630 ft | 134 kts | 338° |
| 2026-04-26 14:44 | 37.72326 | 20.89448 | 452 ft | 137 kts | 342° |
| 2026-04-26 14:45 | 37.73228 | 20.89117 | 251 ft | 135 kts | 344° |
| 2026-04-26 14:45 | 37.73534 | 20.89012 | 206 ft | 134 kts | 343° |
| 2026-04-26 14:45 | 37.74723 | 20.88563 | 26 ft | 125 kts | 341° |
| 2026-04-26 14:45 | 37.75415 | 20.88306 | 21 ft | 76 kts | 343° |
| 2026-04-26 14:46 | 37.75622 | 20.88240 | 22 ft | 9 kts | 15° |
| 2026-04-26 14:46 | 37.75650 | 20.88228 | 23 ft | 2 kts | 224° |
| 2026-04-26 14:46 | 37.75622 | 20.88231 | 22 ft | 5 kts | 162° |
| 2026-04-26 14:46 | 37.75573 | 20.88247 | 22 ft | 9 kts | 165° |